Kohat Weather



Kohat's Current Weather

Temprature 16o haze

haze

Rain: 0 %

Min Temprature16o
Max Temprature16o
Humidity59
Wind Speed2.1 m/h
Sun Rise06:29:34
Sun Set17:26:10
Current Time: 28-Oct-2020 07:23:46
Lat/Lon: 33.58, 71.45




Kohat's Geo Location



Kohat's Weather Forecast

Time Overall Temp Min Temp Max Temp Humidity Wind Speed Rain
28-Oct-2020 (Wed)
08:00:00 clear sky 18.670 18.670 21.480 41 0.74 m/h 0 %
11:00:00 clear sky 24.000 24.000 26.210 26 1.04 m/h 0 %
14:00:00 clear sky 27.470 27.470 28.250 17 1.78 m/h 0 %
17:00:00 clear sky 25.160 25.160 25.230 18 1.86 m/h 0 %
20:00:00 clear sky 19.710 19.710 19.710 26 0.22 m/h 0 %
23:00:00 clear sky 18.370 18.370 18.370 27 0.96 m/h 0 %
29-Oct-2020 (Thu)
02:00:00 clear sky 17.380 17.380 17.380 29 1.45 m/h 0 %
05:00:00 clear sky 16.510 16.510 16.510 31 1.49 m/h 0 %
08:00:00 clear sky 21.460 21.460 21.460 23 1.48 m/h 0 %
11:00:00 clear sky 26.680 26.680 26.680 15 2.46 m/h 0 %
14:00:00 clear sky 28.270 28.270 28.270 13 4.24 m/h 0 %
17:00:00 clear sky 24.500 24.500 24.500 17 2.34 m/h 0 %
20:00:00 clear sky 19.040 19.040 19.040 23 0.77 m/h 0 %
23:00:00 clear sky 17.670 17.670 17.670 25 0.99 m/h 0 %
30-Oct-2020 (Fri)
02:00:00 clear sky 16.670 16.670 16.670 27 1.51 m/h 0 %
05:00:00 clear sky 15.770 15.770 15.770 29 1.85 m/h 0 %
08:00:00 clear sky 20.750 20.750 20.750 22 1.61 m/h 0 %
11:00:00 clear sky 26.440 26.440 26.440 15 1.92 m/h 0 %
14:00:00 clear sky 28.380 28.380 28.380 14 2.95 m/h 0 %
17:00:00 clear sky 23.710 23.710 23.710 19 1.57 m/h 0 %
20:00:00 clear sky 19.210 19.210 19.210 24 1.38 m/h 0 %
23:00:00 clear sky 18.380 18.380 18.380 24 1.96 m/h 0 %
31-Oct-2020 (Sat)
02:00:00 clear sky 16.490 16.490 16.490 26 1.73 m/h 0 %
05:00:00 clear sky 14.860 14.860 14.860 28 1.55 m/h 0 %
08:00:00 clear sky 20.350 20.350 20.350 21 1.25 m/h 0 %
11:00:00 clear sky 26.610 26.610 26.610 13 1.32 m/h 0 %
14:00:00 clear sky 28.730 28.730 28.730 11 1.78 m/h 0 %
17:00:00 clear sky 22.970 22.970 22.970 18 1.04 m/h 0 %
20:00:00 clear sky 18.710 18.710 18.710 21 1.6 m/h 0 %
23:00:00 clear sky 17.290 17.290 17.290 22 1.91 m/h 0 %
01-Nov-2020 (Sun)
02:00:00 clear sky 15.880 15.880 15.880 22 1.7 m/h 0 %
05:00:00 clear sky 14.490 14.490 14.490 23 1.26 m/h 0 %
08:00:00 clear sky 20.120 20.120 20.120 20 1.25 m/h 0 %
11:00:00 clear sky 26.990 26.990 26.990 12 1.12 m/h 0 %
14:00:00 clear sky 29.420 29.420 29.420 10 1.6 m/h 0 %
17:00:00 clear sky 22.720 22.720 22.720 19 0.66 m/h 0 %
20:00:00 clear sky 18.800 18.800 18.800 21 1.33 m/h 0 %
23:00:00 clear sky 19.490 19.490 19.490 19 2.55 m/h 0 %
02-Nov-2020 (Mon)
02:00:00 clear sky 16.720 16.720 16.720 22 1.14 m/h 0 %
05:00:00 clear sky 14.930 14.930 14.930 23 1.04 m/h 0 %

Famous Cities (60)